Ellisville, IL (61431)

08:45 CDT le 22 août 2014 (GMT -0500)
KILFAIRV4 | Change Station
CLOSE
Current Station
Stations météorologiques personnelles
Location: Kepple Acres Farms near Fairview, IL
Altitude: 741 ft
Stations météo à proximité
Avis météorologiques actifs: Areal Flood Advisory Préavis actif: Local Storm Report

Alt. 741 ft 40.68 °N, 90.10 °W | Updated 30 seconds ago

Light Rain
Pluie fine
72.0 ° F
Paraît 74 ° F
N
0.0
Vent Variable Vent de SSE
Gusts 18.0 mph

Aujourd'hui
Haut(e) -- | Bas -- ° F
--% Risque de précip.
Hier
Haut(e) -- | Bas -- ° F
Precip. -- pouce
6:18 AM 7:48 PM
Lune descendante, 8% visible
Pression 29.98 pouce
Visibilité 4.0 Miles terrestres
Nuages Nuages épars 3100 ft
Nuages épars 5000 ft
Couvert 10000 ft
indice de chaleur 74 ° F
Point de rosée 26 ° F
Humidité 18%
Précipitations 1.66 pouce
Profondeur de la couche neigeuse Non disponible.
UV 1 sur 12
Pollen 7.10 sur 12
Ozone Bon
PM2.5 Bon
Flu Activity Non disponible.
METAR KMQB 221335Z AUTO 16005KT 4SM -RA SCT031 SCT050 OVC100 23/23 A2998 RMK AO2 LTG DSNT SW THRU NE T02330233

More Conditions Fewer Conditions

Pression 29.98 pouce
Visibilité 4.0 Miles terrestres
Nuages Nuages épars 3100 ft
Nuages épars 5000 ft
Couvert 10000 ft
indice de chaleur 74 ° F
Point de rosée 26 ° F
Humidité 18%
Précipitations 1.66 pouce
Profondeur de la couche neigeuse Non disponible.
UV 1 sur 12
Pollen 7.10 sur 12
Ozone Bon
PM2.5 Bon
Flu Activity Non disponible.
METAR KMQB 221335Z AUTO 16005KT 4SM -RA SCT031 SCT050 OVC100 23/23 A2998 RMK AO2 LTG DSNT SW THRU NE T02330233

More Conditions Fewer Conditions

10-Day Weather Forecast

Almanac

Astronomie

Aug. 22, 2014 Lever Coucher
Temps réel 06:18 CDT 19:48 CDT
Crépuscule civil 05:49 CDT 20:17 CDT
Crépuscule nautique 05:15 CDT 20:51 CDT
Crépuscule astronomique 04:38 CDT 21:28 CDT
Lune 03:40 CDT 17:57 CDT
Durée de lumière visible 14h 27m
Longueur du jour
13h 30m
Tomorrow will be 2m 28s shorter.
Lune descendante, 8% of the Moon is Illuminated
Aujourd'hui
Lune descendante
août 25
Nouveau
Sep 2
Premier quartier
Sep 8
Pleine lune
Sep 15
Dernier quartier

Extrêmes aujourd'hui

State Highs State Lows

Community

WunderPhotos

Upload Photos

1,746,168 Photos téléchargées !

Nearby

Qualité de l'air

  Qualité de l'air Indice de la qualité de l'air Polluant
Hier Moyen
PM2.5
Hier Bon
OZONE
Actuel Bon
PM2.5
Actuel Bon
OZONE
vendredi Moyen
PM2.5
vendredi Moyen
OZONE
samedi Moyen
PM2.5
samedi Moyen
OZONE
dimanche Moyen
PM2.5
dimanche Moyen
OZONE

Épaisseur de neige

Station Depth Altitude
Pas de nouvelles chutes de neige

Activité sismique

Ville Distance Mag. Time & Date
No recent earthquake activity has been reported nearby.
Minimum magnitude displayed is 2.5.

Températures des eaux côtières

Lieu Température
Aucun rapport de station

Stations météo à proximité